AKDT,Max TemperatureF,Mean TemperatureF,Min TemperatureF,Max Dew PointF,MeanDew PointF,Min DewpointF,Max Humidity, Mean Humidity, Min Humidity, Max Sea Level PressureIn, Mean Sea Level PressureIn, Min Sea Level PressureIn, Max VisibilityMiles, Mean VisibilityMiles, Min VisibilityMiles, Max Wind SpeedMPH, Mean Wind SpeedMPH, Max Gust SpeedMPH,PrecipitationIn, CloudCover, Events, WindDirDegrees
2013-5-1,44,35,26,30,27,23,93,68,46,29.78,29.61,29.53,10,10,10,12,4,17,0.00,6,,354
2013-5-2,41,36,32,36,32,25,93,84,65,29.84,29.77,29.63,10,8,2,9,1,,0.01,8,,336
2013-5-3,41,37,33,36,33,27,93,85,61,29.90,29.84,29.78,10,9,3,9,3,,0.02,8,,250
2013-5-4,42,37,30,34,30,25,93,79,49,29.93,29.82,29.76,10,8,1,10,3,,0.02,7,,254
2013-5-5,46,36,26,28,24,19,93,62,34,30.14,30.07,29.94,10,10,10,15,5,,0.00,2,,24
2013-5-6,44,37,30,28,25,19,80,60,39,30.25,30.18,30.14,10,10,10,18,5,22,0.00,5,,233
2013-5-7,46,38,30,32,28,25,86,67,46,30.27,30.26,30.24,10,10,10,12,3,16,0.00,7,,271
2013-5-8,51,40,28,30,27,23,93,58,35,30.27,30.24,30.20,10,10,10,14,3,18,0.00,1,,18
2013-5-9,51,40,28,34,27,21,80,60,40,30.28,30.25,30.23,10,10,10,9,2,,0.00,5,,29
2013-5-10,60,43,26,34,29,21,86,55,33,30.23,30.07,29.92,10,10,10,9,3,,0.00,2,,38
2013-5-11,53,46,39,43,38,34,93,73,51,29.92,29.73,29.57,10,10,5,10,4,,0.00,8,,356
2013-5-12,55,47,39,43,38,34,93,74,47,29.56,29.51,29.46,10,10,10,9,2,,0.00,8,,23
2013-5-13,50,44,37,41,32,19,93,67,34,29.47,29.43,29.40,10,8,0,12,3,16,0.00,8,,8
2013-5-14,48,39,30,25,19,14,70,44,29,29.63,29.54,29.46,10,10,8,17,3,20,0.00,6,,302
2013-5-15,46,37,28,34,24,18,76,57,34,29.74,29.70,29.64,10,10,1,12,4,,0.01,4,,311
2013-5-16,39,36,33,37,33,27,93,85,70,29.71,29.55,29.43,10,10,5,10,4,17,0.05,8,,13
2013-5-17,42,38,33,36,33,30,93,85,66,29.52,29.43,29.38,10,7,1,12,5,,0.27,8,,229
2013-5-18,39,34,28,30,20,12,87,59,33,30.17,29.82,29.53,10,10,5,14,6,18,0.00,7,,42
2013-5-19,46,34,23,19,16,10,80,47,25,30.60,30.45,30.18,10,10,10,13,3,17,0.00,0,,356
2013-5-20,48,36,23,30,21,16,75,53,34,30.64,30.60,30.56,10,10,10,15,4,,0.00,0,,266
2013-5-21,48,38,28,34,30,25,86,67,50,30.55,30.42,30.26,10,10,10,13,3,,0.00,7,,22
2013-5-22,51,43,35,41,35,28,87,74,54,30.26,30.17,30.12,10,10,9,12,2,,0.00,8,,285
2013-5-23,55,48,42,43,39,36,87,74,51,30.15,30.13,30.09,10,9,2,12,2,,0.00,7,,289
2013-5-24,62,48,35,39,37,30,87,59,39,30.10,30.02,29.96,10,10,10,16,4,20,0.00,3,,272
2013-5-25,62,48,33,39,36,28,81,63,39,29.99,29.95,29.91,10,10,10,17,5,,0.00,0,,271
2013-5-26,53,42,30,46,37,27,93,78,54,29.94,29.90,29.87,10,10,10,10,2,,0.01,5,,27
2013-5-27,69,56,42,45,41,37,93,67,33,29.89,29.83,29.77,10,10,9,18,4,24,0.00,2,,301
2013-5-28,75,54,33,45,38,28,87,55,25,29.79,29.70,29.63,10,10,10,14,3,,0.00,0,,318
2013-5-29,71,54,37,45,38,30,81,52,33,29.75,29.67,29.65,10,10,9,16,4,,0.00,0,,274
2013-5-30,62,50,37,43,39,34,87,62,42,30.01,29.90,29.76,10,10,10,16,5,21,0.00,0,,274
2013-5-31,55,47,39,45,41,36,93,78,63,30.16,30.09,30.01,10,8,0,16,5,20,0.00,5,,251